createdAt,value
2018-05-08T00:00:30.411Z,3.93
2018-05-08T00:02:58.404Z,3.30
2018-05-08T00:05:25.978Z,3.80
2018-05-08T00:07:53.556Z,3.40
2018-05-08T00:10:21.207Z,3.30
2018-05-08T00:12:49.058Z,4.30
2018-05-08T00:15:16.987Z,3.50
2018-05-08T00:17:44.843Z,3.20
2018-05-08T00:20:12.480Z,3.63
2018-05-08T00:22:40.304Z,3.60
2018-05-08T00:25:07.968Z,4.03
2018-05-08T00:27:35.599Z,3.83
2018-05-08T00:30:03.606Z,3.47
2018-05-08T00:32:31.160Z,3.90
2018-05-08T00:34:58.730Z,3.93
2018-05-08T00:37:26.311Z,3.77
2018-05-08T00:39:53.936Z,4.17
2018-05-08T00:42:21.640Z,3.30
2018-05-08T00:44:49.506Z,4.70
2018-05-08T00:47:17.058Z,4.67
2018-05-08T00:49:44.648Z,4.23
2018-05-08T00:52:12.420Z,4.77
2018-05-08T00:54:51.831Z,4.10
2018-05-08T00:57:19.858Z,4.60
2018-05-08T00:59:47.656Z,4.50
2018-05-08T01:02:15.215Z,4.17
2018-05-08T01:04:42.822Z,4.20
2018-05-08T01:07:10.466Z,4.53
2018-05-08T01:09:38.243Z,5.33
2018-05-08T01:12:06.040Z,4.00
2018-05-08T01:14:33.594Z,4.37
2018-05-08T01:17:01.299Z,4.90
2018-05-08T01:19:28.819Z,4.60
2018-05-08T01:21:56.411Z,4.00
2018-05-08T01:24:23.991Z,3.77
2018-05-08T01:26:51.623Z,4.63
2018-05-08T01:29:19.216Z,4.30
2018-05-08T01:31:46.770Z,4.60
2018-05-08T01:34:14.343Z,4.40
2018-05-08T01:36:41.996Z,4.70
2018-05-08T01:39:09.613Z,4.07
2018-05-08T01:41:37.246Z,4.10
2018-05-08T01:44:04.866Z,4.23
2018-05-08T01:46:32.559Z,4.63
2018-05-08T01:49:00.161Z,4.17
2018-05-08T01:51:27.707Z,4.23
2018-05-08T01:53:55.547Z,4.90
2018-05-08T01:56:23.134Z,4.10
2018-05-08T01:58:50.731Z,4.60
2018-05-08T02:01:18.379Z,4.30
2018-05-08T02:03:46.047Z,4.40
2018-05-08T02:06:13.715Z,4.40
2018-05-08T02:08:41.440Z,4.90
2018-05-08T02:11:09.356Z,5.00
2018-05-08T02:13:36.911Z,4.00
2018-05-08T02:16:04.486Z,4.60
2018-05-08T02:18:32.209Z,4.77
2018-05-08T02:21:00.066Z,4.90
2018-05-08T02:23:27.858Z,5.20
2018-05-08T02:25:55.839Z,3.80
2018-05-08T02:28:23.375Z,4.83
2018-05-08T02:30:50.987Z,4.90
2018-05-08T02:33:18.958Z,4.90
2018-05-08T02:35:46.726Z,4.40
2018-05-08T02:38:14.282Z,4.53
2018-05-08T02:40:42.115Z,4.97
2018-05-08T02:43:10.145Z,4.50
2018-05-08T02:45:37.691Z,4.60
2018-05-08T02:48:05.251Z,5.00
2018-05-08T02:50:32.873Z,4.80
2018-05-08T02:53:00.488Z,5.80
2018-05-08T02:55:28.060Z,5.10
2018-05-08T02:57:55.964Z,4.70
2018-05-08T03:00:23.573Z,5.33
2018-05-08T03:02:52.164Z,5.17
2018-05-08T03:05:19.787Z,5.60
2018-05-08T03:07:47.830Z,6.10
2018-05-08T03:10:15.396Z,5.83
2018-05-08T03:12:42.956Z,5.70
2018-05-08T03:15:10.539Z,5.23
2018-05-08T03:17:38.553Z,5.27
2018-05-08T03:20:06.165Z,5.60
2018-05-08T03:22:33.729Z,5.17
2018-05-08T03:25:01.284Z,5.53
2018-05-08T03:27:28.974Z,5.80
2018-05-08T03:29:56.553Z,5.37
2018-05-08T03:32:25.513Z,6.33
2018-05-08T03:34:53.694Z,5.60
2018-05-08T03:37:21.793Z,5.30
2018-05-08T03:39:49.864Z,5.50
2018-05-08T03:42:17.987Z,5.70
2018-05-08T03:44:45.641Z,6.50
2018-05-08T03:47:13.220Z,5.83
2018-05-08T03:49:40.886Z,5.43
2018-05-08T03:52:08.820Z,5.73
2018-05-08T03:54:36.455Z,5.70
2018-05-08T03:57:04.011Z,5.63
2018-05-08T03:59:31.705Z,5.73
2018-05-08T04:02:11.212Z,5.17
2018-05-08T04:04:50.844Z,5.20
2018-05-08T04:07:31.247Z,5.40
2018-05-08T04:09:59.243Z,5.90
2018-05-08T04:12:27.033Z,6.10
2018-05-08T04:14:54.609Z,6.37
2018-05-08T04:17:22.502Z,6.57
2018-05-08T04:19:50.077Z,6.10
2018-05-08T04:22:17.669Z,5.70
2018-05-08T04:24:45.255Z,6.00
2018-05-08T04:27:12.826Z,5.73
2018-05-08T04:29:40.388Z,6.10
2018-05-08T04:32:08.249Z,6.00
2018-05-08T04:34:35.915Z,6.20
2018-05-08T04:37:03.517Z,5.93
2018-05-08T04:39:31.117Z,5.43
2018-05-08T04:41:58.757Z,5.60
2018-05-08T04:44:26.816Z,6.00
2018-05-08T04:46:55.050Z,5.50
2018-05-08T04:49:22.907Z,6.10
2018-05-08T04:51:50.930Z,5.00
2018-05-08T04:54:18.972Z,5.03
2018-05-08T04:56:47.475Z,7.00
2018-05-08T04:59:15.771Z,5.63
2018-05-08T05:01:44.090Z,5.33
2018-05-08T05:04:12.119Z,6.20
2018-05-08T05:06:39.717Z,5.30
2018-05-08T05:09:07.296Z,5.03
2018-05-08T05:11:35.000Z,5.10
2018-05-08T05:14:02.607Z,5.30
2018-05-08T05:16:30.183Z,5.80
2018-05-08T05:18:57.980Z,5.03
2018-05-08T05:21:25.585Z,4.57
2018-05-08T05:23:53.149Z,5.30
2018-05-08T05:26:20.727Z,5.20
2018-05-08T05:28:48.316Z,5.23
2018-05-08T05:31:16.283Z,7.60
2018-05-08T05:33:43.855Z,5.30
2018-05-08T05:36:12.175Z,5.30
2018-05-08T05:38:39.813Z,5.40
2018-05-08T05:41:07.405Z,5.90
2018-05-08T05:43:35.104Z,5.47
2018-05-08T05:46:02.732Z,6.10
2018-05-08T05:48:30.409Z,4.87
2018-05-08T05:50:58.051Z,5.37
2018-05-08T05:53:25.724Z,5.30
2018-05-08T05:55:53.576Z,5.00
2018-05-08T05:58:21.136Z,4.77
2018-05-08T06:00:48.871Z,6.13
2018-05-08T06:03:16.549Z,5.30
2018-05-08T06:05:44.505Z,5.27
2018-05-08T06:08:12.159Z,4.40
2018-05-08T06:10:39.785Z,3.90
2018-05-08T06:13:07.444Z,4.00
2018-05-08T06:15:35.097Z,5.10
2018-05-08T06:18:02.673Z,4.13
2018-05-08T06:20:30.478Z,4.60
2018-05-08T06:22:58.019Z,4.53
2018-05-08T06:25:25.880Z,4.63
2018-05-08T06:27:53.569Z,4.40
2018-05-08T06:30:21.135Z,5.17
2018-05-08T06:32:48.702Z,4.20
2018-05-08T06:35:16.707Z,4.50
2018-05-08T06:37:44.376Z,4.33
2018-05-08T06:40:11.946Z,4.23
2018-05-08T06:42:39.957Z,4.77
2018-05-08T06:45:07.525Z,3.83
2018-05-08T06:47:35.186Z,3.83
2018-05-08T06:50:03.093Z,4.03
2018-05-08T06:52:30.715Z,3.90
2018-05-08T06:54:58.553Z,3.53
2018-05-08T06:57:26.148Z,3.60
2018-05-08T06:59:53.745Z,3.70
2018-05-08T07:02:21.488Z,3.60
2018-05-08T07:04:49.069Z,4.00
2018-05-08T07:07:16.897Z,3.73
2018-05-08T07:09:44.768Z,4.90
2018-05-08T07:12:12.383Z,3.97
2018-05-08T07:14:40.036Z,3.63
2018-05-08T07:17:07.880Z,3.70
2018-05-08T07:19:35.457Z,3.73
2018-05-08T07:22:03.085Z,3.63
2018-05-08T07:24:30.762Z,3.30
2018-05-08T07:26:58.727Z,3.40
2018-05-08T07:29:26.532Z,3.53
2018-05-08T07:31:54.416Z,3.37
2018-05-08T07:34:21.988Z,3.10
2018-05-08T07:36:49.873Z,3.37
2018-05-08T07:39:17.706Z,3.17
2018-05-08T07:41:45.278Z,3.40
2018-05-08T07:44:12.856Z,3.70
2018-05-08T07:46:40.551Z,3.00
2018-05-08T07:49:08.560Z,3.17
2018-05-08T07:51:36.162Z,3.47
2018-05-08T07:54:03.717Z,3.20
2018-05-08T07:56:31.313Z,3.03
2018-05-08T07:58:58.871Z,3.13
2018-05-08T08:01:26.540Z,2.90
2018-05-08T08:03:54.127Z,3.47
2018-05-08T08:06:21.676Z,3.10
2018-05-08T08:08:49.499Z,3.60
2018-05-08T08:11:17.141Z,3.70
2018-05-08T08:13:44.916Z,3.43
2018-05-08T08:16:12.474Z,3.30
2018-05-08T08:18:40.084Z,3.90
2018-05-08T08:21:07.727Z,3.10
2018-05-08T08:23:35.365Z,3.23
2018-05-08T08:26:02.956Z,3.40
2018-05-08T08:28:30.541Z,3.07
2018-05-08T08:30:58.133Z,2.90
2018-05-08T08:33:25.786Z,3.10
2018-05-08T08:35:53.368Z,2.40
2018-05-08T08:38:21.197Z,3.10
2018-05-08T08:40:48.830Z,3.30
2018-05-08T08:43:16.401Z,3.00
2018-05-08T08:45:44.034Z,2.80
2018-05-08T08:48:11.636Z,2.80
2018-05-08T08:50:39.204Z,3.40
2018-05-08T08:53:06.805Z,2.83
2018-05-08T08:55:34.780Z,3.00
2018-05-08T08:58:02.403Z,2.37
2018-05-08T09:00:29.999Z,3.27
2018-05-08T09:02:57.565Z,3.37
2018-05-08T09:05:25.261Z,3.50
2018-05-08T09:07:52.838Z,3.47
2018-05-08T09:10:20.444Z,3.43
2018-05-08T09:12:48.293Z,2.93
2018-05-08T09:15:15.887Z,2.83
2018-05-08T09:17:43.520Z,3.10
2018-05-08T09:20:11.114Z,2.60
2018-05-08T09:22:38.729Z,3.50
2018-05-08T09:25:06.531Z,3.23
2018-05-08T09:27:34.798Z,2.70
2018-05-08T09:30:02.381Z,2.57
2018-05-08T09:32:30.012Z,3.10
2018-05-08T09:34:57.947Z,2.90
2018-05-08T09:37:25.533Z,2.87
2018-05-08T09:39:53.188Z,2.80
2018-05-08T09:42:20.791Z,2.40
2018-05-08T09:44:48.412Z,2.90
2018-05-08T09:47:16.016Z,2.67
2018-05-08T09:49:43.969Z,3.07
2018-05-08T09:52:12.219Z,2.47
2018-05-08T09:54:39.808Z,2.83
2018-05-08T09:57:07.429Z,3.27
2018-05-08T09:59:35.033Z,2.20
2018-05-08T10:02:02.686Z,2.27
2018-05-08T10:04:30.246Z,2.20
2018-05-08T10:06:57.815Z,2.80
2018-05-08T10:09:25.470Z,2.43
2018-05-08T10:11:53.556Z,2.03
2018-05-08T10:14:21.141Z,1.83
2018-05-08T10:16:48.782Z,2.70
2018-05-08T10:19:16.367Z,2.30
2018-05-08T10:21:43.993Z,2.33
2018-05-08T10:24:11.967Z,1.90
2018-05-08T10:26:39.559Z,2.00
2018-05-08T10:29:07.131Z,3.30
2018-05-08T10:31:34.781Z,1.83
2018-05-08T10:34:02.566Z,1.80
2018-05-08T10:36:30.158Z,1.93
2018-05-08T10:38:57.728Z,1.90
2018-05-08T10:41:25.474Z,2.40
2018-05-08T10:43:53.052Z,2.00
2018-05-08T10:46:20.696Z,1.50
2018-05-08T10:48:48.584Z,1.70
2018-05-08T10:51:16.184Z,2.80
2018-05-08T10:53:44.140Z,1.40
2018-05-08T10:56:11.699Z,2.10
2018-05-08T10:58:39.354Z,1.80
2018-05-08T11:01:06.984Z,2.17
2018-05-08T11:03:34.788Z,3.07
2018-05-08T11:06:03.031Z,1.90
2018-05-08T11:08:30.577Z,1.97
2018-05-08T11:10:58.142Z,2.00
2018-05-08T11:13:26.130Z,2.47
2018-05-08T11:15:53.722Z,1.83
2018-05-08T11:18:21.283Z,1.67
2018-05-08T11:20:49.289Z,1.47
2018-05-08T11:23:16.906Z,1.63
2018-05-08T11:25:44.457Z,1.97
2018-05-08T11:28:12.063Z,1.80
2018-05-08T11:30:39.752Z,1.63
2018-05-08T11:33:07.302Z,1.20
2018-05-08T11:35:34.887Z,1.30
2018-05-08T11:38:02.460Z,1.30
2018-05-08T11:40:30.052Z,2.33
2018-05-08T11:42:57.724Z,1.70
2018-05-08T11:45:25.288Z,1.90
2018-05-08T11:47:52.984Z,1.40
2018-05-08T11:50:20.538Z,1.60
2018-05-08T11:52:48.134Z,1.80
2018-05-08T11:55:15.827Z,1.87
2018-05-08T11:57:43.417Z,1.77
2018-05-08T12:00:11.120Z,1.87
2018-05-08T12:02:38.837Z,1.43
2018-05-08T12:05:06.332Z,1.70
2018-05-08T12:07:33.907Z,1.50
2018-05-08T12:10:01.521Z,1.60
2018-05-08T12:12:29.076Z,2.10
2018-05-08T12:14:56.734Z,1.87
2018-05-08T12:17:24.298Z,1.83
2018-05-08T12:19:52.091Z,1.37
2018-05-08T12:22:19.679Z,1.93
2018-05-08T12:24:47.236Z,2.10
2018-05-08T12:27:15.272Z,1.60
2018-05-08T12:29:42.905Z,1.33
2018-05-08T12:32:10.479Z,1.87
2018-05-08T12:34:38.372Z,1.63
2018-05-08T12:37:06.183Z,1.70
2018-05-08T12:39:33.961Z,1.70
2018-05-08T12:42:01.611Z,1.87
2018-05-08T12:44:29.252Z,1.53
2018-05-08T12:46:56.871Z,1.40
2018-05-08T12:49:24.446Z,1.20
2018-05-08T12:51:52.114Z,1.50
2018-05-08T12:54:19.692Z,1.73
2018-05-08T12:56:47.313Z,1.83
2018-05-08T12:59:15.021Z,1.40
2018-05-08T13:01:42.696Z,2.17
2018-05-08T13:04:10.337Z,1.70
2018-05-08T13:06:37.925Z,2.10
2018-05-08T13:09:06.444Z,2.00
2018-05-08T13:11:34.225Z,1.77
2018-05-08T13:14:01.851Z,3.03
2018-05-08T13:16:29.496Z,1.83
2018-05-08T13:18:57.084Z,1.47
2018-05-08T13:21:24.745Z,1.60
2018-05-08T13:23:52.607Z,1.93
2018-05-08T13:26:20.255Z,2.20
2018-05-08T13:28:47.826Z,2.10
2018-05-08T13:31:15.467Z,1.63
2018-05-08T13:33:43.405Z,1.50
2018-05-08T13:36:11.081Z,3.27
2018-05-08T13:38:38.734Z,1.47
2018-05-08T13:41:06.319Z,1.97
2018-05-08T13:43:34.001Z,2.07
2018-05-08T13:46:01.670Z,1.70
2018-05-08T13:48:29.290Z,1.60
2018-05-08T13:50:57.243Z,2.00
2018-05-08T13:53:24.804Z,2.17
2018-05-08T13:55:52.368Z,1.60
2018-05-08T13:58:20.030Z,1.87
2018-05-08T14:00:47.633Z,1.67
2018-05-08T14:03:15.219Z,1.70
2018-05-08T14:05:42.779Z,1.47
2018-05-08T14:08:10.783Z,1.43
2018-05-08T14:10:38.574Z,1.50
2018-05-08T14:13:06.468Z,1.73
2018-05-08T14:15:33.800Z,1.80
2018-05-08T14:18:01.991Z,1.33
2018-05-08T14:20:29.783Z,1.70
2018-05-08T14:22:57.353Z,1.40
2018-05-08T14:25:25.238Z,1.87
2018-05-08T14:27:52.869Z,1.47
2018-05-08T14:30:20.432Z,1.30
2018-05-08T14:32:48.070Z,1.70
2018-05-08T14:35:15.975Z,1.73
2018-05-08T14:37:44.287Z,1.53
2018-05-08T14:40:11.985Z,1.80
2018-05-08T14:42:39.534Z,1.13
2018-05-08T14:45:07.090Z,1.50
2018-05-08T14:47:34.792Z,1.63
2018-05-08T14:50:02.357Z,1.37
2018-05-08T14:52:29.913Z,1.47
2018-05-08T14:54:57.573Z,1.80
2018-05-08T14:57:25.292Z,2.00
2018-05-08T14:59:53.039Z,1.83
2018-05-08T15:02:20.752Z,1.80
2018-05-08T15:04:48.547Z,1.80
2018-05-08T15:07:16.356Z,1.40
2018-05-08T15:09:43.974Z,1.80
2018-05-08T15:12:11.542Z,1.47
2018-05-08T15:14:39.090Z,1.63
2018-05-08T15:17:07.088Z,1.40
2018-05-08T15:19:34.635Z,1.67
2018-05-08T15:22:02.549Z,1.37
2018-05-08T15:24:30.143Z,1.40
2018-05-08T15:26:57.750Z,1.40
2018-05-08T15:29:25.401Z,1.50
2018-05-08T15:31:53.489Z,1.53
2018-05-08T15:34:21.080Z,1.63
2018-05-08T15:36:48.878Z,1.57
2018-05-08T15:39:16.445Z,1.20
2018-05-08T15:41:44.050Z,1.83
2018-05-08T15:44:11.686Z,1.20
2018-05-08T15:46:39.622Z,1.93
2018-05-08T15:49:07.232Z,1.17
2018-05-08T15:51:34.779Z,1.20
2018-05-08T15:54:02.417Z,1.07
2018-05-08T15:56:30.084Z,1.27
2018-05-08T15:58:57.640Z,1.50
2018-05-08T16:01:25.340Z,1.50
2018-05-08T16:03:53.227Z,1.60
2018-05-08T16:06:20.835Z,1.93
2018-05-08T16:08:48.593Z,1.43
2018-05-08T16:11:16.149Z,1.70
2018-05-08T16:13:43.704Z,1.40
2018-05-08T16:16:11.294Z,1.53
2018-05-08T16:18:39.373Z,1.70
2018-05-08T16:21:07.203Z,1.80
2018-05-08T16:23:34.833Z,1.70
2018-05-08T16:26:02.590Z,2.00
2018-05-08T16:28:30.219Z,1.90
2018-05-08T16:30:58.020Z,1.83
2018-05-08T16:33:25.595Z,1.47
2018-05-08T16:35:53.175Z,1.40
2018-05-08T16:38:20.902Z,1.60
2018-05-08T16:40:48.463Z,2.13
2018-05-08T16:43:16.047Z,1.70
2018-05-08T16:45:43.702Z,2.60
2018-05-08T16:48:11.296Z,1.90
2018-05-08T16:50:39.200Z,1.73
2018-05-08T16:53:06.750Z,1.40
2018-05-08T16:55:34.325Z,1.93
2018-05-08T16:58:01.941Z,1.40
2018-05-08T17:00:29.607Z,1.57
2018-05-08T17:02:57.195Z,2.30
2018-05-08T17:05:24.770Z,2.03
2018-05-08T17:07:52.374Z,1.90
2018-05-08T17:10:20.189Z,2.13
2018-05-08T17:12:48.480Z,1.90
2018-05-08T17:15:16.037Z,1.73
2018-05-08T17:17:43.848Z,2.80
2018-05-08T17:20:11.463Z,2.17
2018-05-08T17:22:39.364Z,1.70
2018-05-08T17:25:06.939Z,1.53
2018-05-08T17:27:34.518Z,1.40
2018-05-08T17:30:02.276Z,1.30
2018-05-08T17:32:29.853Z,1.40
2018-05-08T17:34:57.421Z,1.70
2018-05-08T17:37:25.227Z,1.37
2018-05-08T17:39:52.961Z,1.70
2018-05-08T17:42:20.522Z,1.60
2018-05-08T17:44:48.079Z,1.60
2018-05-08T17:47:15.668Z,1.70
2018-05-08T17:49:43.481Z,1.73
2018-05-08T17:52:11.241Z,1.63
2018-05-08T17:54:38.804Z,1.57
2018-05-08T17:57:06.438Z,1.50
2018-05-08T17:59:34.004Z,1.67
2018-05-08T18:02:07.270Z,1.90
2018-05-08T18:04:34.899Z,1.90
2018-05-08T18:07:02.522Z,1.70
2018-05-08T18:09:30.543Z,1.93
2018-05-08T18:11:58.358Z,2.00
2018-05-08T18:14:25.981Z,1.70
2018-05-08T18:16:53.583Z,1.63
2018-05-08T18:19:21.181Z,1.47
2018-05-08T18:21:48.748Z,1.70
2018-05-08T18:24:16.331Z,1.47
2018-05-08T18:26:43.897Z,1.70
2018-05-08T18:29:11.843Z,1.40
2018-05-08T18:31:39.439Z,1.70
2018-05-08T18:34:07.004Z,2.17
2018-05-08T18:36:34.786Z,1.40
2018-05-08T18:39:02.393Z,1.70
2018-05-08T18:41:30.102Z,0.97
2018-05-08T18:43:57.750Z,1.53
2018-05-08T18:46:25.389Z,1.47
2018-05-08T18:48:53.044Z,1.40
2018-05-08T18:51:20.616Z,2.33
2018-05-08T18:53:48.283Z,1.80
2018-05-08T18:56:16.136Z,1.50
2018-05-08T18:58:43.773Z,1.23
2018-05-08T19:01:11.444Z,1.60
2018-05-08T19:03:39.049Z,1.40
2018-05-08T19:06:06.612Z,2.77
2018-05-08T19:08:34.282Z,1.73
2018-05-08T19:11:07.558Z,1.80
2018-05-08T19:13:35.112Z,1.80
2018-05-08T19:16:03.830Z,1.93
2018-05-08T19:18:36.992Z,2.00
2018-05-08T19:21:04.860Z,1.90
2018-05-08T19:23:32.555Z,1.90
2018-05-08T19:26:00.123Z,1.90
2018-05-08T19:28:33.091Z,2.17
2018-05-08T19:31:00.643Z,2.17
2018-05-08T19:33:28.237Z,2.33
2018-05-08T19:36:01.422Z,1.97
2018-05-08T19:38:29.248Z,2.23
2018-05-08T19:40:56.877Z,1.97
2018-05-08T19:43:24.455Z,2.60
2018-05-08T19:45:52.097Z,3.00
2018-05-08T19:48:19.642Z,2.20
2018-05-08T19:50:47.733Z,1.87
2018-05-08T19:53:15.287Z,2.27
2018-05-08T19:55:42.860Z,2.80
2018-05-08T19:58:10.450Z,2.93
2018-05-08T20:00:38.091Z,2.67
2018-05-08T20:03:05.756Z,2.50
2018-05-08T20:05:33.351Z,2.23
2018-05-08T20:08:01.824Z,1.97
2018-05-08T20:10:29.399Z,2.50
2018-05-08T20:12:57.212Z,1.80
2018-05-08T20:15:24.823Z,2.67
2018-05-08T20:17:52.382Z,2.20
2018-05-08T20:20:19.937Z,2.03
2018-05-08T20:22:47.602Z,2.40
2018-05-08T20:25:15.178Z,2.73
2018-05-08T20:27:42.813Z,2.40
2018-05-08T20:30:10.375Z,2.73
2018-05-08T20:32:38.034Z,2.43
2018-05-08T20:35:05.624Z,2.63
2018-05-08T20:37:33.181Z,2.60
2018-05-08T20:40:00.940Z,3.00
2018-05-08T20:42:28.501Z,2.73
2018-05-08T20:44:56.090Z,2.13
2018-05-08T20:47:23.692Z,2.80
2018-05-08T20:49:51.850Z,2.50
2018-05-08T20:52:19.550Z,2.10
2018-05-08T20:54:47.111Z,2.10
2018-05-08T20:57:14.913Z,2.40
2018-05-08T20:59:42.528Z,2.63
2018-05-08T21:02:10.082Z,2.70
2018-05-08T21:04:37.748Z,2.60
2018-05-08T21:07:05.313Z,2.93
2018-05-08T21:09:33.136Z,2.37
2018-05-08T21:12:00.928Z,2.13
2018-05-08T21:14:28.588Z,2.20
2018-05-08T21:16:56.220Z,2.20
2018-05-08T21:19:24.087Z,2.07
2018-05-08T21:21:51.986Z,2.50
2018-05-08T21:24:19.588Z,2.70
2018-05-08T21:26:47.208Z,2.67
2018-05-08T21:29:20.717Z,2.23
2018-05-08T21:31:48.349Z,2.60
2018-05-08T21:34:15.934Z,2.37
2018-05-08T21:36:43.526Z,2.23
2018-05-08T21:39:11.085Z,2.87
2018-05-08T21:41:38.698Z,2.40
2018-05-08T21:44:06.263Z,2.57
2018-05-08T21:46:34.159Z,2.53
2018-05-08T21:49:01.771Z,2.47
2018-05-08T21:51:29.335Z,2.90
2018-05-08T21:53:56.916Z,4.10
2018-05-08T21:56:24.535Z,2.70
2018-05-08T21:58:52.226Z,2.87
2018-05-08T22:01:20.171Z,3.30
2018-05-08T22:03:47.796Z,2.43
2018-05-08T22:06:15.532Z,2.87
2018-05-08T22:08:43.079Z,2.73
2018-05-08T22:11:10.668Z,2.10
2018-05-08T22:13:38.551Z,3.80
2018-05-08T22:16:06.144Z,2.50
2018-05-08T22:18:33.843Z,2.80
2018-05-08T22:21:01.503Z,2.63
2018-05-08T22:23:29.083Z,2.67
2018-05-08T22:25:56.731Z,2.80
2018-05-08T22:28:24.459Z,2.63
2018-05-08T22:30:52.045Z,2.50
2018-05-08T22:33:19.641Z,2.90
2018-05-08T22:35:47.573Z,3.60
2018-05-08T22:38:15.191Z,3.07
2018-05-08T22:40:42.759Z,2.50
2018-05-08T22:43:10.393Z,3.47
2018-05-08T22:45:37.966Z,2.90
2018-05-08T22:48:05.611Z,3.50
2018-05-08T22:50:33.250Z,2.80
2018-05-08T22:53:00.867Z,3.40
2018-05-08T22:55:28.563Z,3.83
2018-05-08T22:57:56.190Z,2.30
2018-05-08T23:00:23.907Z,3.23
2018-05-08T23:02:51.651Z,2.90
2018-05-08T23:05:19.271Z,3.70
2018-05-08T23:07:46.837Z,2.87
2018-05-08T23:10:14.644Z,3.40
2018-05-08T23:12:42.213Z,3.37
2018-05-08T23:15:09.816Z,2.80
2018-05-08T23:17:37.603Z,3.00
2018-05-08T23:20:05.157Z,3.33
2018-05-08T23:22:32.781Z,2.67
2018-05-08T23:25:00.417Z,2.80
2018-05-08T23:27:28.021Z,3.77
2018-05-08T23:29:55.592Z,3.97
2018-05-08T23:32:23.220Z,3.10
2018-05-08T23:34:50.848Z,3.10
2018-05-08T23:37:18.837Z,3.07
2018-05-08T23:39:46.467Z,3.13
2018-05-08T23:42:14.170Z,3.70
2018-05-08T23:44:41.789Z,2.77
2018-05-08T23:47:09.680Z,3.53
2018-05-08T23:49:37.622Z,3.50
2018-05-08T23:52:05.162Z,3.20
2018-05-08T23:54:32.755Z,3.30
2018-05-08T23:57:00.472Z,3.80
2018-05-08T23:59:28.095Z,3.57
